Iowa Falls, Iowa
Current Conditions -  °F | °C
As of 2:35 PM on Monday 24 Nov 2014 (Local Time) from KIFA Reporting Station
Light Snow Light Snow  
Wind Chill:   Ceiling: 1900
Heat Index: 24°   Visibility: 7mi
Dew Point: 18°   Wind: 30mph
Humidity: 79%   Direction: 300°WNW
Pressure: 29.63"   Gusts: 33mph
Location:  42.52°N, 93.26°W
Report Text: KIFA 242035Z AUTO 30026G29KT 7SM -SN OVC019 M05/M08 A2963 RMK AO2 T10471078
Loading
Personal Weather Stations






























Interactive Weather Map New forecast layout! Learn more

10-Day Weather Forecast

Advertisements
Track Severe Weather on mobile